STS Fryderyk Chopin — SPS2298 — position and weather

sailwx.info

Track history (hours):
 
Tides and Currents Weather Stations Pressure Air Temp Water Temp Dewpoint Dewpoint Depression Visibility Wind Speed Wind Dir Waves Ship Positions

STS Fryderyk Chopin (Poland)

Ship's website: http://www.fryderykchopin.pl/

Last reported at 2017-Feb-12 08:21 UTC. Time now 2017-Feb-22 17:30 UTC.
Position N 14°41' W 061°12'.
Warning: this ship's position is 10 days out of date.

Length 44 m; draft 4.2 m.

Type: Sailing vessel. MMSI: 261000290.

Date/timePositionNaut miles runAvg speedWind from/ knotsBaromVisibWave heightAir tempDewpointWater temp
2017-Feb-12 08:21N 14°41' W 061°12'55 5.6
2017-Feb-11 22:32N 15°32' W 061°32'7 6.8
2017-Feb-11 21:26N 15°39' W 061°35'13 0.6
2017-Feb-10 23:29N 15°52' W 061°35'11 5.4
2017-Feb-10 21:24N 15°57' W 061°46'8 5.8
2017-Feb-10 20:05N 16°01' W 061°52'4 6.6
2017-Feb-10 19:32N 16°03' W 061°56'5 5.1
2017-Feb-10 18:33N 16°06' W 061°60'5 5.4
2017-Feb-10 17:33N 16°09' W 062°05'5 5.2
2017-Feb-10 16:33N 16°12' W 062°09'5 5.5
2017-Feb-10 15:33N 16°15' W 062°14'6 6.1
2017-Feb-10 14:33N 16°20' W 062°17'5 5.2
2017-Feb-10 13:33N 16°25' W 062°20'5 5.4
2017-Feb-10 12:33N 16°29' W 062°23'5 5.1
2017-Feb-10 11:33N 16°33' W 062°26'5 4.9
2017-Feb-10 10:33N 16°37' W 062°29'4 3.7
2017-Feb-10 09:33N 16°41' W 062°30'4 4.3
2017-Feb-10 08:33N 16°45' W 062°32'  
2017-Feb-08 01:10N 17°34' W 063°05'4 6.0
2017-Feb-08 00:32N 17°38' W 063°06'4 4.1
2017-Feb-07 23:33N 17°42' W 063°07'8 4.0
2017-Feb-07 21:32N 17°50' W 063°08'4 3.8
2017-Feb-07 20:33N 17°54' W 063°08'4 4.0
2017-Feb-07 19:33N 17°58' W 063°09'4 4.1
2017-Feb-07 18:34N 18°02' W 063°10'4 3.8
2017-Feb-07 17:29N 18°05' W 063°07'2 1.7
2017-Feb-07 16:28N 18°05' W 063°06'0 0.0
2017-Feb-07 15:25N 18°05' W 063°06'0 0.0
2017-Feb-07 14:28N 18°05' W 063°06'0 0.0
2017-Feb-07 13:31N 18°05' W 063°06'0 0.0
2017-Feb-07 12:31N 18°05' W 063°06'0 0.0
2017-Feb-07 11:31N 18°05' W 063°06'0 0.0
2017-Feb-07 10:31N 18°05' W 063°06'0 0.0
2017-Feb-07 09:04N 18°05' W 063°06'0 0.0
2017-Feb-07 08:31N 18°05' W 063°06'0 0.0
2017-Feb-07 07:22N 18°05' W 063°06'0 0.0
2017-Feb-07 06:25N 18°05' W 063°06'0 0.0
2017-Feb-07 05:25N 18°05' W 063°06'0 0.0
2017-Feb-07 04:25N 18°05' W 063°06'0 0.0
2017-Feb-07 03:22N 18°05' W 063°06'0 0.0
2017-Feb-07 02:28N 18°05' W 063°06'0 0.0
2017-Feb-07 01:28N 18°05' W 063°06'0 0.0
2017-Feb-07 00:31N 18°05' W 063°06'0 0.0
2017-Feb-06 23:31N 18°05' W 063°06'0 0.0
2017-Feb-06 22:31N 18°05' W 063°06'0 0.0
2017-Feb-06 21:31N 18°05' W 063°06'0 0.0
2017-Feb-06 20:31N 18°05' W 063°06'0 0.0
2017-Feb-06 19:22N 18°05' W 063°06'0 0.0
2017-Feb-06 18:31N 18°05' W 063°06'0 0.0
2017-Feb-06 17:22N 18°05' W 063°06'0 0.0
2017-Feb-06 16:25N 18°05' W 063°06'0 0.0
2017-Feb-06 15:10N 18°05' W 063°06'0 0.0
2017-Feb-06 14:22N 18°05' W 063°06'0 0.3
2017-Feb-06 13:30N 18°05' W 063°05'0 0.3
2017-Feb-06 12:32N 18°05' W 063°05'0 0.0
2017-Feb-06 11:32N 18°05' W 063°05'0 0.0
2017-Feb-06 10:20N 18°05' W 063°05'0 0.0
2017-Feb-06 09:11N 18°05' W 063°05'0 0.0
2017-Feb-06 07:26N 18°05' W 063°05'0 0.0
2017-Feb-06 06:29N 18°05' W 063°05'0 0.0
2017-Feb-06 05:26N 18°05' W 063°05'0 0.0
2017-Feb-06 04:32N 18°05' W 063°05'0 0.0
2017-Feb-06 03:17N 18°05' W 063°05'0 0.0
2017-Feb-06 02:29N 18°05' W 063°05'0 0.0
2017-Feb-06 01:29N 18°05' W 063°05'0 0.0
2017-Feb-06 00:32N 18°05' W 063°05'0 0.0
2017-Feb-05 23:20N 18°05' W 063°05'0 0.0
2017-Feb-05 22:32N 18°05' W 063°05'0 0.0
2017-Feb-05 21:32N 18°05' W 063°05'0 0.0
2017-Feb-05 20:20N 18°05' W 063°05'0 0.0
2017-Feb-05 19:23N 18°05' W 063°05'0 0.0
2017-Feb-05 18:23N 18°05' W 063°05'0 0.0
2017-Feb-05 17:29N 18°05' W 063°05'0 0.0
2017-Feb-05 16:26N 18°05' W 063°05'0 0.0
2017-Feb-05 15:29N 18°05' W 063°05'0 0.0
2017-Feb-05 14:32N 18°05' W 063°05'0 0.0
2017-Feb-05 13:32N 18°05' W 063°05'0 0.0
2017-Feb-05 12:27N 18°05' W 063°05'0 0.4
2017-Feb-05 11:30N 18°05' W 063°05'3 2.9
2017-Feb-05 10:27N 18°05' W 063°09'3 2.8
2017-Feb-05 09:27N 18°02' W 063°08'4 4.5
2017-Feb-05 08:33N 17°59' W 063°05'43 1.2
2017-Feb-03 21:33N 17°30' W 062°32'6 6.0
2017-Feb-03 20:33N 17°25' W 062°28'7 6.9
2017-Feb-03 19:33N 17°19' W 062°24'8 7.9
2017-Feb-03 18:33N 17°13' W 062°20'8 7.8
2017-Feb-03 17:33N 17°07' W 062°14'7 6.9
2017-Feb-03 16:33N 17°01' W 062°10'7 7.3
2017-Feb-03 15:33N 16°56' W 062°05'7 7.3
2017-Feb-03 14:33N 16°50' W 062°00'6 6.3
2017-Feb-03 13:33N 16°44' W 061°58'6 5.7
2017-Feb-03 12:33N 16°39' W 061°56'6 6.1
2017-Feb-03 11:33N 16°33' W 061°53'6 6.3
2017-Feb-03 10:33N 16°27' W 061°51'5 5.4
2017-Feb-03 09:33N 16°22' W 061°50'4 3.9
2017-Feb-03 08:33N 16°18' W 061°48'2 1.9
2017-Feb-03 07:25N 16°17' W 061°50'1 1.7
2017-Feb-03 06:32N 16°16' W 061°51'12 5.0
2017-Feb-03 04:06N 16°04' W 061°48'2 3.8
2017-Feb-03 03:32N 16°02' W 061°47'5 2.4
2017-Feb-03 01:28N 15°57' W 061°46'  
Track history (hours):
 
Tides and Currents Weather Stations Pressure Air Temp Water Temp Dewpoint Dewpoint Depression Visibility Wind Speed Wind Dir Waves Ship Positions

STS Fryderyk Chopin (Poland)

Ship's website: http://www.fryderykchopin.pl/

Last reported at 2017-Feb-12 08:21 UTC. Time now 2017-Feb-22 17:30 UTC.
Position N 14°41' W 061°12'.
Warning: this ship's position is 10 days out of date.

Length 44 m; draft 4.2 m.

Type: Sailing vessel. MMSI: 261000290.

Date/timePositionNaut miles runAvg speedWind from/ knotsBaromVisibWave heightAir tempDewpointWater temp
2017-Feb-12 08:21N 14°41' W 061°12'55 5.6
2017-Feb-11 22:32N 15°32' W 061°32'7 6.8
2017-Feb-11 21:26N 15°39' W 061°35'13 0.6
2017-Feb-10 23:29N 15°52' W 061°35'11 5.4
2017-Feb-10 21:24N 15°57' W 061°46'8 5.8
2017-Feb-10 20:05N 16°01' W 061°52'4 6.6
2017-Feb-10 19:32N 16°03' W 061°56'5 5.1
2017-Feb-10 18:33N 16°06' W 061°60'5 5.4
2017-Feb-10 17:33N 16°09' W 062°05'5 5.2
2017-Feb-10 16:33N 16°12' W 062°09'5 5.5
2017-Feb-10 15:33N 16°15' W 062°14'6 6.1
2017-Feb-10 14:33N 16°20' W 062°17'5 5.2
2017-Feb-10 13:33N 16°25' W 062°20'5 5.4
2017-Feb-10 12:33N 16°29' W 062°23'5 5.1
2017-Feb-10 11:33N 16°33' W 062°26'5 4.9
2017-Feb-10 10:33N 16°37' W 062°29'4 3.7
2017-Feb-10 09:33N 16°41' W 062°30'4 4.3
2017-Feb-10 08:33N 16°45' W 062°32'  
2017-Feb-08 01:10N 17°34' W 063°05'4 6.0
2017-Feb-08 00:32N 17°38' W 063°06'4 4.1
2017-Feb-07 23:33N 17°42' W 063°07'8 4.0
2017-Feb-07 21:32N 17°50' W 063°08'4 3.8
2017-Feb-07 20:33N 17°54' W 063°08'4 4.0
2017-Feb-07 19:33N 17°58' W 063°09'4 4.1
2017-Feb-07 18:34N 18°02' W 063°10'4 3.8
2017-Feb-07 17:29N 18°05' W 063°07'2 1.7
2017-Feb-07 16:28N 18°05' W 063°06'0 0.0
2017-Feb-07 15:25N 18°05' W 063°06'0 0.0
2017-Feb-07 14:28N 18°05' W 063°06'0 0.0
2017-Feb-07 13:31N 18°05' W 063°06'0 0.0
2017-Feb-07 12:31N 18°05' W 063°06'0 0.0
2017-Feb-07 11:31N 18°05' W 063°06'0 0.0
2017-Feb-07 10:31N 18°05' W 063°06'0 0.0
2017-Feb-07 09:04N 18°05' W 063°06'0 0.0
2017-Feb-07 08:31N 18°05' W 063°06'0 0.0
2017-Feb-07 07:22N 18°05' W 063°06'0 0.0
2017-Feb-07 06:25N 18°05' W 063°06'0 0.0
2017-Feb-07 05:25N 18°05' W 063°06'0 0.0
2017-Feb-07 04:25N 18°05' W 063°06'0 0.0
2017-Feb-07 03:22N 18°05' W 063°06'0 0.0
2017-Feb-07 02:28N 18°05' W 063°06'0 0.0
2017-Feb-07 01:28N 18°05' W 063°06'0 0.0
2017-Feb-07 00:31N 18°05' W 063°06'0 0.0
2017-Feb-06 23:31N 18°05' W 063°06'0 0.0
2017-Feb-06 22:31N 18°05' W 063°06'0 0.0
2017-Feb-06 21:31N 18°05' W 063°06'0 0.0
2017-Feb-06 20:31N 18°05' W 063°06'0 0.0
2017-Feb-06 19:22N 18°05' W 063°06'0 0.0
2017-Feb-06 18:31N 18°05' W 063°06'0 0.0
2017-Feb-06 17:22N 18°05' W 063°06'0 0.0
2017-Feb-06 16:25N 18°05' W 063°06'0 0.0
2017-Feb-06 15:10N 18°05' W 063°06'0 0.0
2017-Feb-06 14:22N 18°05' W 063°06'0 0.3
2017-Feb-06 13:30N 18°05' W 063°05'0 0.3
2017-Feb-06 12:32N 18°05' W 063°05'0 0.0
2017-Feb-06 11:32N 18°05' W 063°05'0 0.0
2017-Feb-06 10:20N 18°05' W 063°05'0 0.0
2017-Feb-06 09:11N 18°05' W 063°05'0 0.0
2017-Feb-06 07:26N 18°05' W 063°05'0 0.0
2017-Feb-06 06:29N 18°05' W 063°05'0 0.0
2017-Feb-06 05:26N 18°05' W 063°05'0 0.0
2017-Feb-06 04:32N 18°05' W 063°05'0 0.0
2017-Feb-06 03:17N 18°05' W 063°05'0 0.0
2017-Feb-06 02:29N 18°05' W 063°05'0 0.0
2017-Feb-06 01:29N 18°05' W 063°05'0 0.0
2017-Feb-06 00:32N 18°05' W 063°05'0 0.0
2017-Feb-05 23:20N 18°05' W 063°05'0 0.0
2017-Feb-05 22:32N 18°05' W 063°05'0 0.0
2017-Feb-05 21:32N 18°05' W 063°05'0 0.0
2017-Feb-05 20:20N 18°05' W 063°05'0 0.0
2017-Feb-05 19:23N 18°05' W 063°05'0 0.0
2017-Feb-05 18:23N 18°05' W 063°05'0 0.0
2017-Feb-05 17:29N 18°05' W 063°05'0 0.0
2017-Feb-05 16:26N 18°05' W 063°05'0 0.0
2017-Feb-05 15:29N 18°05' W 063°05'0 0.0
2017-Feb-05 14:32N 18°05' W 063°05'0 0.0
2017-Feb-05 13:32N 18°05' W 063°05'0 0.0
2017-Feb-05 12:27N 18°05' W 063°05'0 0.4
2017-Feb-05 11:30N 18°05' W 063°05'3 2.9
2017-Feb-05 10:27N 18°05' W 063°09'3 2.8
2017-Feb-05 09:27N 18°02' W 063°08'4 4.5
2017-Feb-05 08:33N 17°59' W 063°05'43 1.2
2017-Feb-03 21:33N 17°30' W 062°32'6 6.0
2017-Feb-03 20:33N 17°25' W 062°28'7 6.9
2017-Feb-03 19:33N 17°19' W 062°24'8 7.9
2017-Feb-03 18:33N 17°13' W 062°20'8 7.8
2017-Feb-03 17:33N 17°07' W 062°14'7 6.9
2017-Feb-03 16:33N 17°01' W 062°10'7 7.3
2017-Feb-03 15:33N 16°56' W 062°05'7 7.3
2017-Feb-03 14:33N 16°50' W 062°00'6 6.3
2017-Feb-03 13:33N 16°44' W 061°58'6 5.7
2017-Feb-03 12:33N 16°39' W 061°56'6 6.1
2017-Feb-03 11:33N 16°33' W 061°53'6 6.3
2017-Feb-03 10:33N 16°27' W 061°51'5 5.4
2017-Feb-03 09:33N 16°22' W 061°50'4 3.9
2017-Feb-03 08:33N 16°18' W 061°48'2 1.9
2017-Feb-03 07:25N 16°17' W 061°50'1 1.7
2017-Feb-03 06:32N 16°16' W 061°51'12 5.0
2017-Feb-03 04:06N 16°04' W 061°48'2 3.8
2017-Feb-03 03:32N 16°02' W 061°47'5 2.4
2017-Feb-03 01:28N 15°57' W 061°46'  

Dump ship's entire track history